Time;durP1;ratioP1;P1;durP2;ratioP2;P2;SDS_P1;SDS_P2;PMS_P1;PMS_P2;Temp;Humidity;BMP_temperature;BMP_pressure;BME280_temperature;BME280_humidity;BME280_pressure;Samples;Min_cycle;Max_cycle;Signal;HPM_P1;HPM_P2
2022/03/29 00:00:44;;;;;;;1.58;0.95;;;;;;;0.47;77.05;96939.88;5044965;28;20415;-74
2022/03/29 00:03:09;;;;;;;4.25;1.50;;;;;;;0.43;77.52;96942.84;5029419;28;20495;-72
2022/03/29 00:05:35;;;;;;;3.72;1.60;;;;;;;0.34;77.15;96939.94;5044746;28;20091;-72
2022/03/29 00:08:00;;;;;;;2.15;1.65;;;;;;;0.33;77.77;96956.63;5045535;28;20059;-73
2022/03/29 00:10:25;;;;;;;1.15;0.93;;;;;;;0.34;77.77;96950.41;5052893;28;20036;-73
2022/03/29 00:12:53;;;;;;;2.38;1.10;;;;;;;0.38;77.93;96953.66;5031790;28;20044;-72
2022/03/29 00:15:18;;;;;;;2.55;1.55;;;;;;;0.45;78.01;96960.13;5029344;28;20127;-74
2022/03/29 00:21:22;;;;;;;1.98;1.27;;;;;;;0.64;77.29;96959.59;5047757;28;20104;-73
2022/03/29 00:23:47;;;;;;;1.90;1.40;;;;;;;0.64;76.94;96951.72;5044849;28;20036;-76
2022/03/29 00:26:13;;;;;;;2.90;1.52;;;;;;;0.75;76.93;96958.78;5046982;28;20031;-74
2022/03/29 00:28:38;;;;;;;1.83;1.20;;;;;;;0.65;76.61;96962.09;5049802;28;20071;-79
2022/03/29 00:31:03;;;;;;;3.97;1.40;;;;;;;0.61;76.75;96952.78;5034140;28;20071;-73
2022/03/29 00:33:27;;;;;;;2.70;1.25;;;;;;;0.52;77.01;96961.34;5026401;28;20043;-70
2022/03/29 00:35:52;;;;;;;3.00;1.15;;;;;;;0.53;76.69;96962.19;5046142;28;20028;-74
2022/03/29 00:38:17;;;;;;;4.70;1.25;;;;;;;0.49;76.91;96960.72;5025896;28;20070;-68
2022/03/29 00:40:42;;;;;;;2.33;1.00;;;;;;;0.49;77.27;96958.09;5046119;28;20048;-68
2022/03/29 00:43:08;;;;;;;0.82;0.73;;;;;;;0.42;77.26;96967.38;5044244;28;20056;-66
2022/03/29 00:45:33;;;;;;;2.72;1.30;;;;;;;0.36;77.78;96968.66;5033305;28;20040;-72
2022/03/29 00:47:58;;;;;;;1.80;0.88;;;;;;;0.25;78.07;96953.72;5047167;28;20051;-73
2022/03/29 00:50:23;;;;;;;3.22;1.25;;;;;;;0.22;78.00;96960.97;5029217;28;20032;-73
2022/03/29 00:52:48;;;;;;;3.10;0.88;;;;;;;0.24;77.60;96953.81;5044010;28;20044;-72
2022/03/29 00:55:14;;;;;;;2.90;1.20;;;;;;;0.23;77.71;96958.22;5027818;28;20032;-71
2022/03/29 00:57:40;;;;;;;1.95;0.85;;;;;;;0.19;77.40;96953.34;5046152;28;20493;-72
2022/03/29 01:00:08;;;;;;;2.53;1.05;;;;;;;0.12;77.65;96954.69;5044719;28;20509;-72
2022/03/29 01:02:32;;;;;;;3.17;1.02;;;;;;;0.17;77.57;96956.06;5010683;28;20044;-71
2022/03/29 01:04:57;;;;;;;5.53;1.48;;;;;;;0.18;77.00;96952.50;5034112;28;20060;-70
2022/03/29 01:07:22;;;;;;;1.13;0.98;;;;;;;0.11;77.25;96953.91;5075809;28;20047;-71
2022/03/29 01:09:47;;;;;;;1.65;1.05;;;;;;;0.07;77.58;96955.06;5075704;28;20047;-70
2022/03/29 01:12:13;;;;;;;1.20;1.10;;;;;;;0.03;77.64;96950.97;5074669;28;20041;-71
2022/03/29 01:14:39;;;;;;;2.15;1.13;;;;;;;-0.03;77.96;96967.97;5057691;28;20043;-70
2022/03/29 01:19:50;;;;;;;2.47;1.42;;;;;;;-0.14;78.46;96951.38;5056775;28;20059;-70
2022/03/29 01:22:15;;;;;;;5.57;1.58;;;;;;;-0.18;78.32;96955.13;5057001;28;20547;-66
2022/03/29 01:24:43;;;;;;;4.15;1.58;;;;;;;-0.20;78.72;96955.25;5060275;28;20048;-72
2022/03/29 01:27:08;;;;;;;5.72;1.45;;;;;;;-0.16;78.56;96953.25;5064785;28;20724;-72
2022/03/29 01:29:35;;;;;;;2.22;1.52;;;;;;;-0.21;78.53;96964.03;5064117;28;20047;-71
2022/03/29 01:32:07;;;;;;;2.75;1.40;;;;;;;-0.18;78.65;96969.06;5063303;28;20048;-71
2022/03/29 01:34:34;;;;;;;1.83;1.23;;;;;;;-0.11;78.67;96969.44;5056188;28;20032;-71
2022/03/29 01:36:58;;;;;;;2.15;1.33;;;;;;;-0.08;78.59;96969.25;5054212;28;20039;-65
2022/03/29 01:39:23;;;;;;;4.22;1.63;;;;;;;-0.02;78.75;96972.28;5055277;28;20590;-70
2022/03/29 01:41:48;;;;;;;3.08;1.42;;;;;;;0.13;78.30;96967.69;5054669;28;20059;-69
2022/03/29 01:44:13;;;;;;;2.33;1.65;;;;;;;0.21;78.00;96975.84;5055220;28;20051;-72
2022/03/29 01:46:38;;;;;;;3.30;1.88;;;;;;;0.30;77.36;96975.19;5055771;28;20052;-71
2022/03/29 01:49:05;;;;;;;1.92;1.25;;;;;;;0.33;77.36;96982.00;5053723;28;20047;-70
2022/03/29 01:51:30;;;;;;;1.90;1.20;;;;;;;0.44;76.45;96987.28;5055077;28;20853;-71
2022/03/29 01:53:56;;;;;;;2.65;1.35;;;;;;;0.52;76.74;96979.69;5055261;28;20414;-65
2022/03/29 01:56:25;;;;;;;3.10;1.45;;;;;;;0.60;76.62;96979.13;5055239;28;20455;-67
2022/03/29 01:58:50;;;;;;;7.63;1.92;;;;;;;0.60;75.88;96985.19;5037501;28;20048;-70
2022/03/29 02:01:16;;;;;;;3.03;1.30;;;;;;;0.62;75.59;96974.59;5037242;28;20051;-71
2022/03/29 02:03:41;;;;;;;2.55;1.50;;;;;;;0.57;75.66;96979.34;5054993;28;20088;-72
2022/03/29 02:06:05;;;;;;;3.78;1.98;;;;;;;0.56;75.12;96980.31;5055703;28;20035;-72
2022/03/29 02:08:30;;;;;;;2.75;1.45;;;;;;;0.48;75.55;96987.88;5056406;28;20047;-73
2022/03/29 02:10:55;;;;;;;2.88;1.83;;;;;;;0.46;75.32;96974.03;5056010;28;20040;-72
2022/03/29 02:13:21;;;;;;;1.98;1.60;;;;;;;0.51;75.47;96985.03;5056516;28;20040;-76
2022/03/29 02:15:45;;;;;;;5.90;1.75;;;;;;;0.50;75.45;96989.44;5056120;28;20505;-72
2022/03/29 02:18:10;;;;;;;0.90;0.80;;;;;;;0.60;75.73;97000.94;5054741;28;20507;-71
2022/03/29 02:20:35;;;;;;;4.10;1.35;;;;;;;0.58;75.00;96996.72;5045005;28;20039;-72
2022/03/29 02:23:06;;;;;;;3.63;1.52;;;;;;;0.49;75.05;96986.94;5037172;28;20039;-70
2022/03/29 02:25:31;;;;;;;1.70;1.25;;;;;;;0.46;74.76;96997.63;5055020;28;20391;-71
2022/03/29 02:27:56;;;;;;;1.48;0.82;;;;;;;0.48;75.03;96993.97;5055327;28;20402;-73
2022/03/29 02:30:20;;;;;;;2.50;1.60;;;;;;;0.57;74.97;96993.28;5031228;28;20790;-72
2022/03/29 02:32:45;;;;;;;2.30;1.48;;;;;;;0.62;74.58;96999.03;5044804;28;20044;-71
2022/03/29 02:35:11;;;;;;;1.02;0.98;;;;;;;0.66;74.75;96999.66;5021379;28;20040;-73
2022/03/29 02:37:37;;;;;;;1.23;1.13;;;;;;;0.69;74.03;97004.66;5039316;28;20212;-77
2022/03/29 02:40:03;;;;;;;4.60;1.33;;;;;;;0.66;73.72;96995.25;5030887;28;20055;-72
2022/03/29 02:42:28;;;;;;;1.17;0.90;;;;;;;0.56;73.79;97006.53;5016002;28;20123;-72
2022/03/29 02:44:53;;;;;;;3.22;1.05;;;;;;;0.48;74.23;96998.38;5016271;28;20152;-71
2022/03/29 02:47:18;;;;;;;4.03;0.98;;;;;;;0.42;74.34;97017.16;5015276;28;20033;-71
2022/03/29 02:49:42;;;;;;;3.42;1.75;;;;;;;0.36;74.51;97016.66;4997671;28;20142;-71
2022/03/29 02:52:10;;;;;;;3.67;1.58;;;;;;;0.33;74.24;97011.66;4997576;28;20045;-72
2022/03/29 02:54:35;;;;;;;2.80;1.63;;;;;;;0.30;74.65;97009.25;4998263;28;20047;-73
2022/03/29 02:57:00;;;;;;;6.47;1.83;;;;;;;0.33;74.68;97016.91;5014152;28;20419;-72
2022/03/29 02:59:24;;;;;;;2.47;1.15;;;;;;;0.35;74.57;97011.53;5017446;28;20453;-74
2022/03/29 03:01:49;;;;;;;3.13;2.08;;;;;;;0.30;74.70;97009.25;5021315;28;20037;-73
2022/03/29 03:04:14;;;;;;;3.80;1.75;;;;;;;0.39;74.30;97010.34;5000906;28;20511;-72
2022/03/29 03:06:41;;;;;;;6.78;2.13;;;;;;;0.56;74.37;96996.03;5018225;28;20123;-72
2022/03/29 03:09:05;;;;;;;3.17;1.85;;;;;;;0.40;74.14;96996.31;5022045;28;20045;-73
2022/03/29 03:11:30;;;;;;;5.28;2.13;;;;;;;0.34;74.23;96989.72;5015823;28;20037;-72
2022/03/29 03:13:55;;;;;;;3.05;1.55;;;;;;;0.29;74.29;97010.19;5013811;28;20037;-67
2022/03/29 03:16:19;;;;;;;2.10;1.60;;;;;;;0.21;74.54;97009.06;4998359;28;20049;-67
2022/03/29 03:18:44;;;;;;;3.83;1.80;;;;;;;0.14;74.98;97016.53;4998616;28;20053;-66
2022/03/29 03:21:09;;;;;;;2.75;1.55;;;;;;;0.09;74.79;97021.28;4997157;28;20450;-65
2022/03/29 03:23:34;;;;;;;3.20;1.90;;;;;;;0.09;75.12;97023.06;5017556;28;20047;-65
2022/03/29 03:25:59;;;;;;;7.90;3.10;;;;;;;0.07;75.20;97024.94;5017477;28;20040;-64
2022/03/29 03:28:24;;;;;;;4.32;2.03;;;;;;;-0.01;75.46;97023.72;5033999;28;20499;-63
2022/03/29 03:30:48;;;;;;;4.60;2.15;;;;;;;-0.02;75.62;97013.34;5017478;28;20044;-64
2022/03/29 03:33:13;;;;;;;7.22;3.08;;;;;;;0.04;75.54;97020.75;5018949;28;20407;-68
2022/03/29 03:35:38;;;;;;;4.90;2.03;;;;;;;0.05;75.36;97030.28;5018787;28;20122;-63
2022/03/29 03:38:03;;;;;;;4.75;1.90;;;;;;;0.15;75.47;97027.84;5022694;28;20049;-65
2022/03/29 03:40:28;;;;;;;3.42;2.15;;;;;;;0.21;74.72;97036.13;5036031;28;20387;-63
2022/03/29 03:42:52;;;;;;;5.00;2.60;;;;;;;0.16;74.66;97034.75;5028547;28;20042;-63
2022/03/29 03:45:17;;;;;;;7.25;2.85;;;;;;;0.31;74.87;97044.16;5044388;28;20126;-68
2022/03/29 03:47:42;;;;;;;3.38;2.55;;;;;;;0.45;74.13;97045.78;5051919;28;20048;-65
2022/03/29 03:50:08;;;;;;;5.72;2.85;;;;;;;0.50;73.41;97048.88;5030292;28;20403;-65
2022/03/29 03:52:33;;;;;;;4.57;2.30;;;;;;;0.71;73.50;97050.78;5051583;28;20035;-64
2022/03/29 03:54:58;;;;;;;5.20;3.08;;;;;;;0.86;73.08;97051.47;5043976;28;20055;-64
2022/03/29 03:57:23;;;;;;;4.72;2.75;;;;;;;1.01;72.09;97055.56;5045097;28;20044;-64
2022/03/29 03:59:50;;;;;;;9.15;2.95;;;;;;;0.96;71.53;97062.94;5036598;28;20041;-64
2022/03/29 04:02:15;;;;;;;4.22;2.45;;;;;;;0.93;71.53;97063.16;5019085;28;20040;-62
2022/03/29 04:04:40;;;;;;;8.02;2.78;;;;;;;0.80;72.25;97059.75;5019083;28;20043;-65
2022/03/29 04:07:06;;;;;;;2.30;1.67;;;;;;;0.92;72.35;97056.22;5019092;28;20036;-64
2022/03/29 04:09:35;;;;;;;3.20;2.05;;;;;;;1.04;72.28;97059.72;5035978;28;20051;-64
2022/03/29 04:12:00;;;;;;;4.45;1.88;;;;;;;1.05;72.19;97058.78;5036949;28;20488;-65
2022/03/29 04:14:24;;;;;;;2.83;1.85;;;;;;;1.08;72.19;97067.28;5036646;28;20503;-63
2022/03/29 04:16:49;;;;;;;3.13;2.33;;;;;;;1.13;71.75;97071.34;5036483;28;20135;-64
2022/03/29 04:19:14;;;;;;;5.05;2.20;;;;;;;1.20;71.83;97073.41;5034820;28;20052;-63
2022/03/29 04:21:39;;;;;;;3.53;2.22;;;;;;;1.29;71.85;97074.50;5036518;28;20044;-63
2022/03/29 04:24:05;;;;;;;3.33;1.85;;;;;;;1.44;71.74;97074.19;5037449;28;20060;-64
2022/03/29 04:26:30;;;;;;;3.88;1.98;;;;;;;1.51;71.44;97077.16;5036900;28;20055;-63
2022/03/29 04:28:55;;;;;;;5.35;2.83;;;;;;;1.56;71.10;97076.84;5018702;28;20044;-63
2022/03/29 04:31:20;;;;;;;4.53;2.50;;;;;;;1.47;70.81;97072.28;5001593;28;20093;-65
2022/03/29 04:33:45;;;;;;;5.50;2.10;;;;;;;1.46;71.05;97079.31;5018940;28;20036;-64
2022/03/29 04:36:09;;;;;;;5.20;2.50;;;;;;;1.55;71.10;97083.03;5035866;28;20040;-65
2022/03/29 04:38:34;;;;;;;6.35;2.78;;;;;;;1.73;70.66;97084.25;5036589;28;20565;-64
2022/03/29 04:40:59;;;;;;;4.05;2.35;;;;;;;1.99;70.06;97096.22;5036802;28;20510;-64
2022/03/29 04:43:24;;;;;;;3.47;2.08;;;;;;;2.20;69.00;97088.44;5036821;28;20040;-64
2022/03/29 04:45:49;;;;;;;2.80;1.90;;;;;;;2.32;68.62;97087.47;5037264;28;20055;-63
2022/03/29 04:48:14;;;;;;;4.28;2.55;;;;;;;2.24;68.11;97092.50;5036417;28;20044;-64
2022/03/29 04:50:38;;;;;;;4.10;2.47;;;;;;;2.25;67.73;97096.81;5036388;28;20127;-64
2022/03/29 04:53:04;;;;;;;4.97;2.30;;;;;;;2.35;68.38;97094.28;5036563;28;20037;-64
2022/03/29 04:55:28;;;;;;;4.10;2.75;;;;;;;2.38;67.80;97094.88;5018608;28;20471;-64
2022/03/29 04:57:53;;;;;;;3.42;2.75;;;;;;;2.33;67.76;97097.03;5036676;28;20464;-63
2022/03/29 05:00:22;;;;;;;4.40;3.00;;;;;;;2.42;67.70;97085.78;5036676;28;20040;-62
2022/03/29 05:02:47;;;;;;;4.70;3.17;;;;;;;2.48;67.35;97100.25;5036286;28;20075;-64
2022/03/29 05:05:13;;;;;;;5.43;3.00;;;;;;;2.53;67.42;97112.06;5018368;28;20133;-65
2022/03/29 05:07:39;;;;;;;4.15;2.90;;;;;;;2.57;67.36;97096.91;5035965;28;20041;-64
2022/03/29 05:10:04;;;;;;;4.28;2.17;;;;;;;2.54;67.18;97103.22;5017864;28;20518;-65
2022/03/29 05:12:29;;;;;;;4.82;2.80;;;;;;;2.59;66.92;97102.88;5035984;28;20036;-63
2022/03/29 05:14:54;;;;;;;7.30;3.50;;;;;;;2.63;66.68;97106.06;5034394;28;20055;-64
2022/03/29 05:17:19;;;;;;;4.90;2.80;;;;;;;2.64;66.74;97113.84;5017618;28;20048;-64
2022/03/29 05:19:43;;;;;;;3.20;2.25;;;;;;;2.77;66.74;97108.44;5035793;28;20044;-64
2022/03/29 05:22:08;;;;;;;5.18;2.85;;;;;;;2.80;66.17;97095.03;5017817;28;20045;-64
2022/03/29 05:24:33;;;;;;;8.07;2.50;;;;;;;2.90;66.04;97101.22;5035453;28;20052;-63
2022/03/29 05:26:58;;;;;;;5.60;2.28;;;;;;;2.92;65.59;97104.59;5000842;28;20052;-69
2022/03/29 05:29:25;;;;;;;4.38;2.70;;;;;;;2.86;65.51;97107.69;5034986;28;20101;-65
2022/03/29 05:31:49;;;;;;;4.50;2.42;;;;;;;3.26;66.03;97119.28;5034827;28;20036;-63
2022/03/29 05:34:14;;;;;;;5.53;2.95;;;;;;;3.70;63.55;97095.47;5017759;28;20043;-64
2022/03/29 05:36:44;;;;;;;4.03;2.03;;;;;;;3.94;63.18;97102.16;5035409;28;20059;-65
2022/03/29 05:39:08;;;;;;;2.47;1.92;;;;;;;4.16;62.20;97097.69;5000697;28;20049;-63
2022/03/29 05:41:33;;;;;;;4.15;2.33;;;;;;;4.32;61.94;97106.75;5034879;28;20541;-64
2022/03/29 05:43:58;;;;;;;2.88;2.22;;;;;;;4.25;61.80;97091.59;5017778;28;20032;-65
2022/03/29 05:49:07;;;;;;;4.45;2.35;;;;;;;3.92;62.00;97122.53;5036592;28;20049;-63
2022/03/29 05:51:31;;;;;;;4.38;1.85;;;;;;;3.80;62.48;97122.72;5017844;28;20128;-64
2022/03/29 05:53:57;;;;;;;4.18;2.25;;;;;;;3.82;62.16;97131.34;5035571;28;20131;-65
2022/03/29 05:56:22;;;;;;;2.88;2.25;;;;;;;3.73;62.10;97122.38;5033898;28;20073;-64
2022/03/29 05:58:47;;;;;;;8.23;2.50;;;;;;;3.87;62.34;97132.59;5035071;28;20094;-65
2022/03/29 06:01:12;;;;;;;8.15;2.90;;;;;;;3.81;62.24;97127.88;5017060;28;20032;-64
2022/03/29 06:03:37;;;;;;;4.30;2.47;;;;;;;3.75;62.26;97157.34;5017069;28;20421;-64
2022/03/29 06:06:01;;;;;;;3.53;2.53;;;;;;;3.81;62.16;97166.56;5017083;28;20519;-63
2022/03/29 06:08:26;;;;;;;1.23;0.80;;;;;;;3.65;62.51;97180.16;5035315;28;20218;-64
2022/03/29 06:10:53;;;;;;;1.85;1.23;;;;;;;3.19;63.42;97198.88;5035207;28;20417;-64
2022/03/29 06:13:18;;;;;;;0.82;0.80;;;;;;;2.80;64.52;97197.66;5035494;28;20045;-64
2022/03/29 06:15:43;;;;;;;1.77;1.40;;;;;;;2.43;65.51;97195.28;5017249;28;20036;-64
2022/03/29 06:18:08;;;;;;;2.15;1.30;;;;;;;2.26;65.90;97208.88;4983673;28;20037;-63
2022/03/29 06:20:32;;;;;;;3.17;1.20;;;;;;;2.08;66.82;97213.75;5034526;28;20041;-65
2022/03/29 06:22:57;;;;;;;1.48;1.23;;;;;;;1.94;67.34;97227.09;5034557;28;20448;-65
2022/03/29 06:25:22;;;;;;;2.03;1.50;;;;;;;1.87;68.20;97223.25;5033359;28;20040;-64
2022/03/29 06:27:47;;;;;;;4.53;2.10;;;;;;;1.84;68.93;97231.34;5034844;28;20521;-65
2022/03/29 06:30:12;;;;;;;4.72;1.92;;;;;;;1.86;68.28;97233.88;5034655;28;20498;-65
2022/03/29 06:32:48;;;;;;;2.28;1.33;;;;;;;2.00;67.54;97238.94;5035338;28;20495;-65
2022/03/29 06:35:13;;;;;;;2.28;1.52;;;;;;;2.08;66.89;97241.81;5036134;28;20101;-65
2022/03/29 06:37:38;;;;;;;1.98;1.75;;;;;;;2.25;66.46;97241.38;5035050;28;20135;-65
2022/03/29 06:40:03;;;;;;;2.03;1.50;;;;;;;2.43;65.64;97249.66;5035244;28;20056;-64
2022/03/29 06:42:28;;;;;;;1.75;1.65;;;;;;;2.57;64.99;97243.34;5035319;28;20068;-64
2022/03/29 06:44:53;;;;;;;3.53;2.10;;;;;;;2.62;63.52;97251.69;5021482;28;20529;-65
2022/03/29 06:47:18;;;;;;;2.08;1.55;;;;;;;2.73;63.18;97259.59;5025847;28;20522;-64
2022/03/29 06:49:43;;;;;;;3.30;1.55;;;;;;;2.84;63.86;97249.06;5039186;28;20040;-64
2022/03/29 06:52:08;;;;;;;2.50;1.35;;;;;;;2.84;62.30;97251.69;5038891;28;20531;-64
2022/03/29 06:54:32;;;;;;;2.92;1.90;;;;;;;2.93;62.21;97251.00;5036826;28;20051;-65
2022/03/29 06:56:57;;;;;;;2.03;1.80;;;;;;;3.02;62.56;97247.63;5038576;28;20749;-65
2022/03/29 06:59:22;;;;;;;5.97;2.65;;;;;;;3.11;61.30;97253.94;5038482;28;20190;-65
2022/03/29 07:01:47;;;;;;;3.90;1.65;;;;;;;3.15;61.11;97261.50;5038189;28;20051;-64
2022/03/29 07:04:12;;;;;;;4.75;2.33;;;;;;;3.26;61.04;97261.47;5038728;28;20048;-64
2022/03/29 07:06:37;;;;;;;2.45;1.55;;;;;;;3.37;60.51;97273.78;5020703;28;20062;-64
2022/03/29 07:11:46;;;;;;;;;;;;;;;3.85;58.74;97281.28;5038615;28;20048;-65
2022/03/29 07:14:12;;;;;;;1.88;1.48;;;;;;;4.07;59.06;97270.63;5038364;28;19939;-64
2022/03/29 07:16:39;;;;;;;3.72;1.92;;;;;;;4.18;58.63;97286.41;5038402;28;20036;-65
2022/03/29 07:19:04;;;;;;;2.30;1.77;;;;;;;4.32;58.45;97290.53;5020171;28;20040;-64
2022/03/29 07:21:28;;;;;;;3.20;2.08;;;;;;;4.34;57.61;97289.44;5037628;28;20124;-64
2022/03/29 07:23:53;;;;;;;2.45;1.90;;;;;;;4.39;56.68;97291.72;5037807;28;20410;-65
2022/03/29 07:26:18;;;;;;;3.03;1.58;;;;;;;4.55;58.26;97297.34;5019701;28;20044;-64
2022/03/29 07:28:43;;;;;;;3.63;1.52;;;;;;;4.65;57.14;97300.03;5019552;28;20036;-64
2022/03/29 07:31:08;;;;;;;2.42;2.05;;;;;;;4.69;55.41;97290.91;5002839;28;20067;-64
2022/03/29 07:33:32;;;;;;;4.32;2.95;;;;;;;4.66;54.38;97301.72;5037265;28;20053;-63
2022/03/29 07:35:57;;;;;;;3.63;2.83;;;;;;;4.27;53.68;97298.84;5037838;28;20552;-65
2022/03/29 07:38:22;;;;;;;2.83;1.98;;;;;;;4.20;54.79;97302.94;5037725;28;20052;-64
2022/03/29 07:40:47;;;;;;;4.72;2.42;;;;;;;4.15;55.16;97299.03;5037573;28;20056;-65
2022/03/29 07:43:21;;;;;;;6.30;3.03;;;;;;;4.43;55.73;97308.09;5037256;28;20040;-65
2022/03/29 07:45:46;;;;;;;2.78;2.17;;;;;;;4.68;54.67;97311.19;5037193;28;20119;-65
2022/03/29 07:48:11;;;;;;;2.63;1.95;;;;;;;4.99;53.67;97309.41;5037316;28;20127;-64
2022/03/29 07:50:36;;;;;;;3.05;2.00;;;;;;;5.46;53.76;97307.06;5037740;28;20045;-64
2022/03/29 07:53:03;;;;;;;6.35;2.17;;;;;;;6.14;53.31;97308.88;5036979;28;20055;-65
2022/03/29 07:55:27;;;;;;;2.13;1.90;;;;;;;6.70;52.50;97309.94;5019201;28;20066;-63
2022/03/29 07:57:52;;;;;;;5.03;2.30;;;;;;;7.06;51.38;97316.25;5037333;28;20127;-64
2022/03/29 08:00:34;;;;;;;3.17;1.90;;;;;;;7.02;49.77;97315.72;5037321;28;20036;-66
2022/03/29 08:03:07;;;;;;;1.48;1.38;;;;;;;6.68;48.31;97309.25;5036976;28;20044;-64
2022/03/29 08:05:33;;;;;;;1.77;1.58;;;;;;;6.38;49.09;97334.09;5037054;28;20119;-63
2022/03/29 08:07:58;;;;;;;6.55;1.77;;;;;;;6.11;50.06;97343.53;5036889;28;20487;-63
2022/03/29 08:10:23;;;;;;;2.50;1.75;;;;;;;6.10;49.79;97346.31;5018555;28;20127;-63
2022/03/29 08:12:48;;;;;;;2.20;1.85;;;;;;;6.09;50.62;97364.03;5037097;28;20044;-65
2022/03/29 08:15:13;;;;;;;3.28;2.30;;;;;;;5.97;49.83;97359.00;5019167;28;20094;-64
2022/03/29 08:17:38;;;;;;;2.03;1.83;;;;;;;5.63;49.27;97367.22;5037206;28;20524;-63
2022/03/29 08:20:05;;;;;;;4.18;2.60;;;;;;;5.32;48.61;97369.03;5037105;28;20041;-63
2022/03/29 08:22:30;;;;;;;4.20;2.63;;;;;;;5.31;49.48;97364.72;5019512;28;20040;-64
2022/03/29 08:24:54;;;;;;;5.43;2.65;;;;;;;4.83;48.61;97374.22;5019804;28;20112;-63
2022/03/29 08:27:19;;;;;;;2.33;1.95;;;;;;;4.93;49.77;97372.47;5003381;28;20041;-64
2022/03/29 08:29:44;;;;;;;4.03;2.80;;;;;;;5.18;49.49;97371.22;5018698;28;20032;-64
2022/03/29 08:32:09;;;;;;;4.18;2.92;;;;;;;5.16;48.21;97365.22;5036576;28;20562;-64
2022/03/29 08:34:34;;;;;;;7.20;2.78;;;;;;;5.20;48.85;97372.72;5036833;28;20037;-65
2022/03/29 08:36:58;;;;;;;4.72;3.03;;;;;;;5.32;49.32;97376.13;5036183;28;20052;-65
2022/03/29 08:39:23;;;;;;;4.68;3.33;;;;;;;5.19;49.07;97379.00;5036687;28;20040;-66
2022/03/29 08:42:08;;;;;;;4.53;2.60;;;;;;;5.34;48.94;97379.47;5036538;28;20529;-64
2022/03/29 08:44:33;;;;;;;2.92;2.55;;;;;;;5.16;48.91;97378.44;5045714;28;20040;-66
2022/03/29 08:46:58;;;;;;;3.58;2.25;;;;;;;5.06;49.03;97387.16;5013616;28;20054;-65
2022/03/29 08:49:24;;;;;;;2.88;2.20;;;;;;;4.95;49.48;97391.66;5048059;28;20754;-63
2022/03/29 08:51:49;;;;;;;3.97;2.95;;;;;;;4.93;49.71;97396.22;5045953;28;20044;-64
2022/03/29 08:54:14;;;;;;;3.78;1.98;;;;;;;4.87;49.99;97396.72;5035751;28;20044;-64
2022/03/29 08:56:42;;;;;;;2.00;1.67;;;;;;;4.91;49.13;97395.50;5001235;28;20059;-64
2022/03/29 08:59:07;;;;;;;2.05;1.85;;;;;;;5.14;49.10;97397.03;5035795;28;20486;-64
2022/03/29 09:01:32;;;;;;;3.33;2.25;;;;;;;5.07;48.47;97406.47;5031787;28;20039;-71
2022/03/29 09:04:14;;;;;;;2.08;1.70;;;;;;;5.33;49.05;97407.69;5056130;28;20044;-73
2022/03/29 09:06:54;;;;;;;4.28;1.95;;;;;;;5.41;49.75;97407.91;5055442;28;20043;-72
2022/03/29 09:09:44;;;;;;;4.63;2.78;;;;;;;5.38;49.41;97416.09;5022617;28;20044;-72
2022/03/29 09:12:17;;;;;;;3.78;1.90;;;;;;;5.14;49.23;97415.53;5050949;28;20488;-73
2022/03/29 09:14:52;;;;;;;2.28;1.77;;;;;;;4.98;48.45;97421.25;5046657;28;20083;-72
2022/03/29 09:17:34;;;;;;;6.35;2.58;;;;;;;4.86;49.93;97411.72;5036456;28;20044;-71
2022/03/29 09:20:02;;;;;;;2.92;1.98;;;;;;;4.67;50.15;97416.88;5014021;28;20044;-71
2022/03/29 09:22:36;;;;;;;2.83;2.15;;;;;;;4.62;49.59;97424.34;5055693;28;20499;-72
2022/03/29 09:25:01;;;;;;;2.40;1.95;;;;;;;4.67;50.86;97424.78;5056264;28;20130;-72
2022/03/29 09:27:28;;;;;;;2.70;2.22;;;;;;;4.59;50.50;97438.63;5055539;28;20529;-74
2022/03/29 09:30:07;;;;;;;5.22;3.55;;;;;;;4.63;50.29;97442.69;5055401;28;20506;-71
2022/03/29 09:32:32;;;;;;;2.60;2.33;;;;;;;4.78;50.29;97445.00;5037850;28;20052;-73
2022/03/29 09:35:04;;;;;;;3.28;2.05;;;;;;;4.91;49.29;97443.03;5056365;28;20051;-71
2022/03/29 09:37:33;;;;;;;2.65;2.05;;;;;;;5.05;49.47;97442.72;5054887;28;20418;-72
2022/03/29 09:39:58;;;;;;;3.70;2.17;;;;;;;5.13;49.71;97434.97;5037002;28;20387;-75
2022/03/29 09:42:40;;;;;;;3.00;2.45;;;;;;;5.09;48.76;97441.47;5035693;28;20567;-64
2022/03/29 09:45:06;;;;;;;6.55;2.42;;;;;;;5.40;49.49;97448.50;5020768;28;20425;-65
2022/03/29 09:47:30;;;;;;;6.90;2.72;;;;;;;5.62;48.75;97438.72;5055962;28;20070;-65
2022/03/29 09:50:05;;;;;;;2.97;2.58;;;;;;;5.84;48.33;97449.09;5037443;28;20131;-65
2022/03/29 09:52:34;;;;;;;5.75;2.97;;;;;;;5.86;47.64;97449.81;5055463;28;20059;-72
2022/03/29 09:55:23;;;;;;;3.88;2.53;;;;;;;5.93;47.07;97452.78;5055631;28;20093;-73
2022/03/29 09:57:50;;;;;;;2.50;2.30;;;;;;;5.96;48.34;97461.28;5055210;28;20040;-73
2022/03/29 10:00:23;;;;;;;5.47;2.83;;;;;;;6.26;47.84;97462.19;5037204;28;20051;-72
2022/03/29 10:02:48;;;;;;;6.00;2.70;;;;;;;6.38;47.62;97461.13;5020084;28;20063;-71
2022/03/29 10:05:17;;;;;;;5.25;2.45;;;;;;;6.63;47.38;97454.47;5055158;28;20079;-70
2022/03/29 10:10:57;;;;;;;3.72;2.20;;;;;;;6.95;45.76;97462.97;5055332;28;20040;-73
2022/03/29 10:13:25;;;;;;;3.25;2.25;;;;;;;6.81;44.33;97460.72;5054816;28;20040;-73
2022/03/29 10:15:51;;;;;;;5.85;2.13;;;;;;;6.82;44.34;97465.88;5055583;28;20071;-73
2022/03/29 10:18:16;;;;;;;1.77;1.67;;;;;;;6.65;43.27;97458.66;5055203;28;20127;-74
2022/03/29 10:20:41;;;;;;;2.90;2.42;;;;;;;6.80;43.57;97462.53;5059342;28;20070;-73
2022/03/29 10:23:07;;;;;;;2.30;1.80;;;;;;;6.82;43.54;97459.75;5059669;28;20040;-71
2022/03/29 10:25:33;;;;;;;2.55;2.35;;;;;;;6.72;43.89;97459.75;5040928;28;20035;-73
2022/03/29 10:27:59;;;;;;;2.20;1.92;;;;;;;6.43;43.44;97474.78;5040902;28;20126;-72
2022/03/29 10:30:41;;;;;;;3.20;2.25;;;;;;;6.10;43.14;97475.94;5059745;28;20096;-73
2022/03/29 10:33:19;;;;;;;2.00;1.65;;;;;;;5.87;44.36;97466.53;5059168;28;20044;-72
2022/03/29 10:36:09;;;;;;;3.67;2.00;;;;;;;5.36;44.61;97468.22;5040740;28;20079;-73
2022/03/29 10:38:46;;;;;;;7.10;2.05;;;;;;;5.13;45.61;97466.69;5040536;28;20052;-72
2022/03/29 10:41:26;;;;;;;2.45;2.22;;;;;;;5.19;46.09;97481.19;5024393;28;20418;-71
2022/03/29 10:44:19;;;;;;;2.78;1.70;;;;;;;5.11;46.07;97479.16;5058497;28;20050;-70
2022/03/29 10:46:49;;;;;;;2.45;1.92;;;;;;;5.04;46.07;97478.00;5044749;28;20085;-64
2022/03/29 10:49:25;;;;;;;3.20;2.80;;;;;;;4.98;47.35;97479.34;5049249;28;20036;-67
2022/03/29 10:51:53;;;;;;;1.52;1.42;;;;;;;4.96;47.19;97483.94;5039459;28;20049;-68
2022/03/29 10:54:36;;;;;;;3.67;2.42;;;;;;;5.03;47.70;97473.69;5054493;28;20576;-67
2022/03/29 10:57:07;;;;;;;2.72;1.80;;;;;;;4.96;47.54;97480.47;5048341;28;20502;-71
2022/03/29 10:59:33;;;;;;;3.10;2.63;;;;;;;4.62;47.45;97475.34;5047072;28;20491;-69
2022/03/29 11:02:20;;;;;;;3.40;2.22;;;;;;;4.61;48.58;97480.72;5046010;28;20040;-67
2022/03/29 11:05:07;;;;;;;3.55;1.90;;;;;;;4.63;48.99;97484.91;5013188;28;20043;-66
2022/03/29 11:07:34;;;;;;;2.15;1.95;;;;;;;4.54;49.29;97479.53;5031770;28;20046;-66
2022/03/29 11:10:13;;;;;;;3.67;3.05;;;;;;;4.35;48.67;97486.31;5040079;28;20040;-66
2022/03/29 11:12:43;;;;;;;3.70;2.72;;;;;;;4.15;49.74;97471.25;5055283;28;20047;-67
2022/03/29 11:15:35;;;;;;;2.53;2.28;;;;;;;4.16;48.78;97477.38;5040358;28;20459;-65
2022/03/29 11:18:01;;;;;;;1.92;1.83;;;;;;;4.07;49.76;97475.44;5058310;28;20040;-66
2022/03/29 11:20:34;;;;;;;3.33;1.80;;;;;;;4.20;50.06;97484.91;5032782;28;20040;-65
2022/03/29 11:23:08;;;;;;;3.25;2.53;;;;;;;4.35;50.30;97493.38;5057760;28;20104;-65
2022/03/29 11:25:42;;;;;;;4.03;2.85;;;;;;;4.58;50.00;97494.16;5042610;28;20100;-66
2022/03/29 11:28:11;;;;;;;5.30;2.85;;;;;;;4.72;49.71;97496.53;5025833;28;20584;-67
2022/03/29 11:30:35;;;;;;;3.05;2.20;;;;;;;4.81;49.96;97497.56;5051125;28;20466;-67
2022/03/29 11:33:02;;;;;;;2.53;2.33;;;;;;;4.83;48.96;97506.19;5036117;28;20477;-70
2022/03/29 11:35:27;;;;;;;2.63;2.42;;;;;;;4.68;48.70;97493.28;5028079;28;20101;-69
2022/03/29 11:37:53;;;;;;;6.57;3.05;;;;;;;4.55;49.06;97497.03;5013303;28;20044;-70
2022/03/29 11:40:19;;;;;;;6.50;3.17;;;;;;;4.54;49.24;97504.13;5033906;28;20071;-69
2022/03/29 11:42:51;;;;;;;4.30;3.20;;;;;;;4.59;49.45;97501.97;5055724;28;20039;-69
2022/03/29 11:45:21;;;;;;;2.90;2.65;;;;;;;4.62;49.77;97509.63;5054908;28;20093;-67
2022/03/29 11:47:59;;;;;;;3.58;2.83;;;;;;;4.72;49.91;97512.38;5037753;28;20062;-67
2022/03/29 11:50:44;;;;;;;3.78;3.03;;;;;;;4.75;49.41;97515.56;5057593;28;20048;-66
2022/03/29 11:53:15;;;;;;;5.18;3.97;;;;;;;4.71;48.85;97514.16;5018963;28;20044;-66
2022/03/29 11:55:39;;;;;;;5.88;2.95;;;;;;;4.60;49.15;97516.84;5004606;28;20040;-65